createdAt,value
2018-04-28T09:04:13.749Z,23.09
2018-04-28T09:04:54.514Z,23.57
2018-04-28T09:05:35.084Z,24.16
2018-04-28T09:22:22.701Z,34.02
2018-04-28T09:23:11.786Z,36.12
2018-04-28T09:37:41.047Z,46.12
2018-04-28T09:38:30.311Z,46.37
2018-04-28T09:39:19.412Z,46.45
2018-04-28T09:42:14.412Z,46.68
2018-04-28T09:42:58.870Z,46.69
2018-04-28T09:43:38.923Z,46.68
2018-04-28T09:44:20.921Z,46.9
2018-04-28T09:46:23.595Z,46.77
2018-04-28T09:54:48.186Z,49.75
2018-04-28T09:55:38.031Z,50.09
2018-04-28T09:56:30.059Z,50.23
2018-04-28T10:03:19.704Z,50.08
2018-04-28T10:11:14.458Z,48.73
2018-04-28T10:12:08.592Z,48.6
2018-04-28T10:12:56.393Z,48.49
2018-04-28T10:13:59.205Z,48.55
2018-04-28T10:18:29.947Z,48.96
2018-04-28T10:19:10.734Z,48.83
2018-04-28T10:19:51.239Z,48.66
2018-04-28T10:20:31.715Z,48.45
2018-04-28T10:21:12.254Z,48.35
2018-04-28T10:21:52.818Z,48.21
2018-04-28T10:22:33.265Z,47.9
2018-04-28T10:23:14.729Z,47.79
2018-04-28T10:23:55.260Z,47.45
2018-04-28T10:24:35.762Z,47.36
2018-04-28T10:25:16.257Z,47.25
2018-04-28T10:25:56.821Z,47.09
2018-04-28T10:26:37.289Z,46.91
2018-04-28T10:27:17.853Z,46.69
2018-04-28T10:27:58.322Z,46.46
2018-04-28T10:28:38.863Z,46.42
2018-04-28T10:29:19.348Z,46.26
2018-04-28T10:29:59.943Z,46.15
2018-04-28T10:30:40.354Z,46.05
2018-04-28T10:31:20.879Z,45.91
2018-04-28T10:32:01.411Z,45.85
2018-04-28T10:32:41.916Z,45.74
2018-04-28T10:33:22.765Z,45.76
2018-04-28T10:34:03.167Z,45.62
2018-04-28T10:34:43.705Z,45.47
2018-04-28T10:35:24.353Z,45.36
2018-04-28T10:36:04.735Z,45.31
2018-04-28T10:36:45.350Z,45.05
2018-04-28T10:37:25.736Z,45.02
2018-04-28T10:38:07.528Z,44.86
2018-04-28T10:38:48.105Z,44.86
2018-04-28T10:39:28.603Z,44.66
2018-04-28T10:40:09.109Z,44.7
2018-04-28T10:40:49.637Z,44.64
2018-04-28T10:41:31.047Z,44.31
2018-04-28T10:42:10.745Z,44.1
2018-04-28T10:42:51.220Z,43.9
2018-04-28T10:43:31.719Z,43.61
2018-04-28T10:44:12.234Z,43.3
2018-04-28T10:44:52.842Z,43.07
2018-04-28T10:45:33.346Z,42.62
2018-04-28T10:46:14.659Z,42.27
2018-04-28T10:46:55.066Z,41.87
2018-04-28T10:47:35.573Z,41.54
2018-04-28T10:48:16.048Z,41.17
2018-04-28T10:48:56.554Z,40.79
2018-04-28T10:49:37.088Z,40.32
2018-04-28T10:50:17.569Z,39.86
2018-04-28T10:50:58.748Z,39.43
2018-04-28T10:51:39.229Z,38.75
2018-04-28T10:54:14.145Z,37.03
2018-04-28T10:55:02.781Z,36.17
2018-04-28T10:55:50.847Z,35.63
2018-04-28T10:56:39.744Z,35.21
2018-04-28T10:57:28.516Z,34.77
2018-04-28T10:58:10.881Z,34.42
2018-04-28T10:58:51.425Z,34.12
2018-04-28T10:59:31.977Z,33.88
2018-04-28T11:00:12.422Z,33.79
2018-04-28T11:00:52.931Z,33.66
2018-04-28T11:01:33.405Z,33.53
2018-04-28T11:02:13.962Z,33.42
2018-04-28T11:02:54.831Z,33.44
2018-04-28T11:03:36.441Z,33.42
2018-04-28T11:04:18.841Z,33.39
2018-04-28T11:07:00.974Z,33.12
2018-04-28T11:08:56.636Z,32.4
2018-04-28T11:09:37.195Z,32.06
2018-04-28T11:10:18.110Z,31.72
2018-04-28T11:10:58.918Z,31.36
2018-04-28T11:11:40.767Z,31.12
2018-04-28T11:12:21.504Z,30.79
2018-04-28T11:13:03.959Z,30.49
2018-04-28T11:13:43.312Z,30.19
2018-04-28T11:14:25.996Z,30.01
2018-04-28T11:15:06.525Z,29.83
2018-04-28T11:15:47.054Z,29.48
2018-04-28T11:16:27.709Z,29.24
2018-04-28T11:17:08.462Z,29
2018-04-28T11:17:49.667Z,28.83
2018-04-28T11:18:30.376Z,28.66
2018-04-28T11:19:10.832Z,28.49
2018-04-28T11:19:51.501Z,28.36
2018-04-28T11:20:32.032Z,28.39
2018-04-28T11:21:12.538Z,28.41
2018-04-28T11:21:52.996Z,28.29
2018-04-28T11:22:33.442Z,28.24
2018-04-28T11:23:14.009Z,28.27
2018-04-28T11:23:54.603Z,28.19
2018-04-28T11:24:35.093Z,28.15
2018-04-28T11:25:15.683Z,28.19
2018-04-28T11:25:56.137Z,28.11
2018-04-28T11:26:37.952Z,28.12
2018-04-28T11:27:18.208Z,28.04
2018-04-28T11:27:58.729Z,28.07
2018-04-28T11:28:39.235Z,27.97
2018-04-28T11:29:19.732Z,27.9
2018-04-28T11:30:00.386Z,27.85
2018-04-28T11:30:41.887Z,27.74
2018-04-28T11:31:22.402Z,27.69
2018-04-28T11:32:02.905Z,27.72
2018-04-28T11:32:43.493Z,27.69
2018-04-28T11:33:23.981Z,27.62
2018-04-28T11:34:04.553Z,27.65
2018-04-28T11:34:45.169Z,27.55
2018-04-28T11:35:25.615Z,27.41
2018-04-28T11:36:06.052Z,27.54
2018-04-28T11:36:46.598Z,27.49
2018-04-28T11:37:27.104Z,27.39
2018-04-28T11:38:07.714Z,27.32
2018-04-28T11:38:48.152Z,27.22
2018-04-28T11:39:28.732Z,27.14
2018-04-28T11:40:09.198Z,27.02
2018-04-28T11:40:49.777Z,26.95
2018-04-28T11:41:30.260Z,26.85
2018-04-28T11:42:10.752Z,26.77
2018-04-28T11:42:51.296Z,26.72
2018-04-28T11:43:31.929Z,26.63
2018-04-28T11:44:12.379Z,26.54
2018-04-28T11:44:52.863Z,26.43
2018-04-28T11:45:33.441Z,26.35
2018-04-28T11:46:13.982Z,26.39
2018-04-28T11:46:54.511Z,26.35
2018-04-28T11:47:35.044Z,26.32
2018-04-28T11:48:15.568Z,26.29
2018-04-28T11:48:56.056Z,26.28
2018-04-28T11:49:36.578Z,26.25
2018-04-28T11:50:17.176Z,26.29
2018-04-28T11:50:57.584Z,26.32
2018-04-28T11:51:38.108Z,26.33
2018-04-28T11:52:18.695Z,26.28
2018-04-28T11:52:59.098Z,26.23
2018-04-28T11:53:39.692Z,26.23
2018-04-28T11:54:20.411Z,26.18
2018-04-28T11:55:00.888Z,26.17
2018-04-28T11:55:41.426Z,26.25
2018-04-28T11:56:21.909Z,26.21
2018-04-28T11:57:02.352Z,26.09
2018-04-28T11:57:42.992Z,26.09
2018-04-28T11:58:23.435Z,26.05
2018-04-28T11:59:04.030Z,26.02
2018-04-28T11:59:44.472Z,26.09
2018-04-28T12:00:24.945Z,25.95
2018-04-28T12:01:05.410Z,25.95
2018-04-28T12:01:45.952Z,25.97
2018-04-28T12:02:26.449Z,25.95
2018-04-28T12:04:42.186Z,25.83
2018-04-28T12:05:30.544Z,25.85
2018-04-28T12:06:16.447Z,25.83
2018-04-28T12:06:56.047Z,25.83
2018-04-28T12:07:37.403Z,25.88
2018-04-28T12:08:17.105Z,25.91
2018-04-28T12:08:57.597Z,25.9
2018-04-28T12:09:38.054Z,25.83
2018-04-28T12:10:18.603Z,25.91
2018-04-28T12:10:59.122Z,25.92
2018-04-28T12:11:39.656Z,25.94
2018-04-28T12:12:20.129Z,26.09
2018-04-28T12:13:00.633Z,26.05
2018-04-28T12:13:41.156Z,26.05
2018-04-28T12:14:21.675Z,26.06
2018-04-28T12:15:02.171Z,26.05
2018-04-28T12:15:42.678Z,25.98
2018-04-28T12:16:23.154Z,25.92
2018-04-28T12:18:38.203Z,25.92
2018-04-28T12:19:26.850Z,25.9
2018-04-28T12:20:15.662Z,25.92
2018-04-28T12:21:04.630Z,25.87
2018-04-28T12:21:52.902Z,25.9
2018-04-28T12:22:41.772Z,25.92
2018-04-28T12:23:30.439Z,25.91
2018-04-28T12:24:19.169Z,25.98
2018-04-28T12:25:07.538Z,25.88
2018-04-28T12:25:56.293Z,26.02
2018-04-28T12:26:44.613Z,25.9
2018-04-28T12:27:32.036Z,26.01
2018-04-28T12:28:21.235Z,26.06
2018-04-28T12:29:09.628Z,26.09
2018-04-28T12:29:58.810Z,26.09
2018-04-28T12:30:47.007Z,26.13
2018-04-28T12:31:35.614Z,26.12
2018-04-28T12:32:24.488Z,26.2
2018-04-28T12:33:13.142Z,26.25
2018-04-28T12:34:00.696Z,26.23
2018-04-28T12:34:46.743Z,26.25
2018-04-28T12:35:27.184Z,26.21
2018-04-28T12:36:07.736Z,26.21
2018-04-28T12:36:48.202Z,26.23
2018-04-28T12:37:28.779Z,26.15
2018-04-28T12:38:09.269Z,26.17
2018-04-28T12:38:49.743Z,26.13
2018-04-28T12:39:30.266Z,26.18
2018-04-28T12:40:10.809Z,26.23
2018-04-28T12:40:51.303Z,26.23
2018-04-28T12:41:31.817Z,26.18
2018-04-28T12:42:12.243Z,26.23
2018-04-28T12:42:52.862Z,26.2
2018-04-28T12:43:33.386Z,26.21
2018-04-28T12:44:13.903Z,26.15
2018-04-28T12:44:54.418Z,26.21
2018-04-28T12:45:34.914Z,26.29
2018-04-28T12:46:15.438Z,26.28
2018-04-28T12:46:55.929Z,26.25
2018-04-28T12:47:37.316Z,26.29
2018-04-28T12:48:17.771Z,26.3
2018-04-28T12:48:58.318Z,26.28
2018-04-28T12:49:38.873Z,26.21
2018-04-28T12:50:19.397Z,26.17
2018-04-28T12:50:59.917Z,26.25
2018-04-28T12:51:40.392Z,26.25
2018-04-28T12:52:20.928Z,26.26
2018-04-28T12:53:01.430Z,26.21
2018-04-28T12:53:41.854Z,26.21
2018-04-28T12:54:23.079Z,26.21
2018-04-28T12:55:03.604Z,26.21
2018-04-28T12:55:44.090Z,26.35
2018-04-28T12:56:24.614Z,26.33
2018-04-28T12:57:05.145Z,26.36
2018-04-28T12:57:45.656Z,26.36
2018-04-28T12:58:26.203Z,26.35
2018-04-28T12:59:06.681Z,26.36
2018-04-28T12:59:47.169Z,26.26
2018-04-28T13:00:27.649Z,26.36
2018-04-28T13:01:08.275Z,26.33
2018-04-28T13:01:48.718Z,26.32
2018-04-28T13:02:29.254Z,26.29
2018-04-28T13:03:10.555Z,26.25
2018-04-28T13:03:50.294Z,26.32
2018-04-28T13:04:31.414Z,26.28
2018-04-28T13:05:12.036Z,26.23
2018-04-28T13:05:52.547Z,26.25
2018-04-28T13:06:33.872Z,26.36
2018-04-28T13:07:14.416Z,26.43
2018-04-28T13:07:54.884Z,26.35
2018-04-28T13:08:35.391Z,26.3
2018-04-28T13:09:15.927Z,26.21
2018-04-28T13:09:56.434Z,26.28
2018-04-28T13:10:36.987Z,26.18
2018-04-28T13:11:17.435Z,26.21
2018-04-28T13:11:58.087Z,26.28
2018-04-28T13:12:38.519Z,26.29
2018-04-28T13:13:19.901Z,26.36
2018-04-28T13:14:00.262Z,26.35
2018-04-28T13:14:40.777Z,26.35
2018-04-28T13:15:21.320Z,26.37
2018-04-28T13:16:01.854Z,26.4
2018-04-28T13:16:42.335Z,26.33
2018-04-28T13:17:22.848Z,26.28
2018-04-28T13:18:03.328Z,26.32
2018-04-28T13:18:43.780Z,26.36
2018-04-28T13:19:24.332Z,26.35
2018-04-28T13:20:04.837Z,26.33
2018-04-28T13:20:45.351Z,26.35
2018-04-28T13:21:25.845Z,26.33
2018-04-28T13:22:06.400Z,26.29
2018-04-28T13:22:46.877Z,26.35
2018-04-28T13:23:27.385Z,26.29
2018-04-28T13:24:07.892Z,26.35
2018-04-28T13:24:48.361Z,26.33
2018-04-28T13:25:28.891Z,26.4
2018-04-28T13:26:09.380Z,26.25
2018-04-28T13:26:49.907Z,26.23
2018-04-28T13:27:30.329Z,26.21
2018-04-28T13:28:11.970Z,26.33
2018-04-28T13:28:52.454Z,26.28
2018-04-28T13:29:33.110Z,26.36
2018-04-28T13:30:13.731Z,26.36
2018-04-28T13:30:54.471Z,26.43
2018-04-28T13:31:35.325Z,26.54
2018-04-28T13:32:15.874Z,26.51
2018-04-28T13:32:56.402Z,26.54
2018-04-28T13:33:36.899Z,26.58
2018-04-28T13:34:17.470Z,26.54
2018-04-28T13:34:57.937Z,26.58
2018-04-28T13:35:38.447Z,26.6
2018-04-28T13:36:19.016Z,26.51
2018-04-28T13:36:59.808Z,26.6
2018-04-28T13:37:40.241Z,26.52
2018-04-28T13:38:20.734Z,26.57
2018-04-28T13:39:01.244Z,26.55
2018-04-28T13:39:41.794Z,26.58
2018-04-28T13:40:22.252Z,26.58
2018-04-28T13:41:02.823Z,26.67
2018-04-28T13:41:43.329Z,26.76
2018-04-28T13:42:23.854Z,26.81
2018-04-28T13:43:04.357Z,26.95
2018-04-28T13:43:44.848Z,26.95
2018-04-28T13:44:26.074Z,26.99
2018-04-28T13:45:05.886Z,27.18
2018-04-28T13:45:46.440Z,27.18
2018-04-28T13:46:27.030Z,27.21
2018-04-28T13:47:07.597Z,27.37
2018-04-28T13:47:48.005Z,27.47
2018-04-28T13:48:28.499Z,27.5
2018-04-28T13:49:09.035Z,27.6
2018-04-28T13:49:49.511Z,27.6
2018-04-28T13:50:30.115Z,27.63
2018-04-28T13:51:10.555Z,27.69
2018-04-28T13:51:51.185Z,27.84
2018-04-28T13:52:31.729Z,27.82
2018-04-28T13:53:12.161Z,27.9
2018-04-28T13:53:52.662Z,27.94
2018-04-28T13:54:33.112Z,28
2018-04-28T13:55:14.459Z,27.97
2018-04-28T13:55:54.885Z,27.97
2018-04-28T13:56:35.396Z,28.02
2018-04-28T13:57:15.926Z,28.06
2018-04-28T13:57:56.450Z,28.07
2018-04-28T13:58:37.098Z,28.11
2018-04-28T13:59:17.465Z,28.17
2018-04-28T13:59:58.102Z,28.24
2018-04-28T14:00:38.553Z,28.31
2018-04-28T14:01:19.107Z,28.34
2018-04-28T14:01:59.575Z,28.27
2018-04-28T14:02:40.147Z,28.27
2018-04-28T14:03:20.674Z,28.27
2018-04-28T14:04:01.200Z,28.27
2018-04-28T14:04:41.677Z,28.29
2018-04-28T14:05:22.185Z,28.21
2018-04-28T14:06:02.703Z,28.15
2018-04-28T14:06:43.223Z,28.07
2018-04-28T14:07:23.771Z,28.02
2018-04-28T14:08:04.255Z,27.97
2018-04-28T14:08:44.776Z,27.97
2018-04-28T14:09:25.211Z,27.88
2018-04-28T14:10:06.586Z,27.79
2018-04-28T14:10:46.398Z,27.7
2018-04-28T14:11:26.984Z,27.7
2018-04-28T14:12:07.461Z,27.65
2018-04-28T14:12:47.971Z,27.6
2018-04-28T14:13:28.437Z,27.57
2018-04-28T14:14:08.956Z,27.44
2018-04-28T14:14:49.537Z,27.43
2018-04-28T14:15:29.938Z,27.5
2018-04-28T14:16:10.496Z,27.46
2018-04-28T14:16:50.951Z,27.46
2018-04-28T14:17:31.519Z,27.44
2018-04-28T14:18:11.972Z,27.32
2018-04-28T14:18:52.580Z,27.46
2018-04-28T14:19:33.090Z,27.41
2018-04-28T14:20:13.614Z,27.34
2018-04-28T14:20:54.151Z,27.43
2018-04-28T14:21:34.628Z,27.43
2018-04-28T14:22:15.176Z,27.46
2018-04-28T14:22:55.671Z,27.41
2018-04-28T14:23:36.195Z,27.37
2018-04-28T14:24:16.697Z,27.49
2018-04-28T14:24:57.246Z,27.49
2018-04-28T14:25:37.775Z,27.49
2018-04-28T14:26:18.307Z,27.51
2018-04-28T14:26:58.862Z,27.49
2018-04-28T14:27:39.279Z,27.46
2018-04-28T14:28:19.775Z,27.55
2018-04-28T14:29:00.268Z,27.43
2018-04-28T14:29:40.785Z,27.43
2018-04-28T14:30:21.386Z,27.54
2018-04-28T14:31:01.841Z,27.47
2018-04-28T14:31:42.346Z,27.41
2018-04-28T14:32:23.110Z,27.49
2018-04-28T14:33:03.581Z,27.41
2018-04-28T14:33:44.112Z,27.34
2018-04-28T14:34:24.601Z,27.39
2018-04-28T14:35:05.127Z,27.43
2018-04-28T14:35:45.625Z,27.24
2018-04-28T14:36:26.515Z,27.19
2018-04-28T14:37:08.197Z,27.22
2018-04-28T14:37:48.816Z,27.22
2018-04-28T14:38:29.224Z,27.17
2018-04-28T14:39:09.653Z,27.19
2018-04-28T14:39:50.208Z,27.14
2018-04-28T14:40:30.673Z,27.07
2018-04-28T14:41:11.225Z,27.02
2018-04-28T14:41:51.662Z,27.02
2018-04-28T14:43:41.934Z,26.88
2018-04-28T14:44:31.095Z,26.88
2018-04-28T14:45:19.239Z,26.81
2018-04-28T14:46:08.347Z,26.72
2018-04-28T14:46:55.019Z,26.67
2018-04-28T14:47:42.360Z,26.58
2018-04-28T14:48:25.503Z,26.51
2018-04-28T14:49:06.062Z,26.55
2018-04-28T14:49:46.495Z,26.55
2018-04-28T14:50:27.045Z,26.45
2018-04-28T14:51:07.499Z,26.4
2018-04-28T14:51:48.067Z,26.37
2018-04-28T14:53:38.463Z,26.28
2018-04-28T14:54:27.328Z,26.26
2018-04-28T14:55:15.413Z,26.25
2018-04-28T14:56:04.759Z,26.15
2018-04-28T14:57:03.446Z,26.18
2018-04-28T14:57:50.700Z,26.2
2018-04-28T14:58:38.815Z,26.18
2018-04-28T14:59:24.415Z,26.15
2018-04-28T15:00:06.823Z,26.15
2018-04-28T15:00:47.434Z,26.09
2018-04-28T15:01:27.848Z,26.09
2018-04-28T15:02:08.410Z,26.12
2018-04-28T15:02:48.908Z,26.1
2018-04-28T15:03:29.468Z,26.09
2018-04-28T15:04:09.968Z,26.06
2018-04-28T15:04:50.809Z,26.02
2018-04-28T15:05:31.323Z,26.09
2018-04-28T15:06:11.818Z,26.1
2018-04-28T15:06:52.386Z,26.06
2018-04-28T15:07:32.875Z,26.02
2018-04-28T15:34:45.072Z,25.69
2018-04-28T15:35:41.754Z,25.76
2018-04-28T15:36:30.927Z,25.75
2018-04-28T15:37:19.695Z,25.82
2018-04-28T15:38:08.331Z,25.82
2018-04-28T15:39:59.702Z,25.77
2018-04-28T15:40:48.283Z,25.83
2018-04-28T15:41:43.979Z,25.82
2018-04-28T15:46:19.185Z,25.92
2018-04-28T15:47:17.635Z,25.91
2018-04-28T15:48:09.929Z,25.94
2018-04-28T16:19:27.392Z,25.38
2018-04-28T16:20:18.949Z,25.43
2018-04-28T16:21:06.521Z,25.28
2018-04-28T16:21:56.449Z,25.24
2018-04-28T17:07:53.378Z,24.15
2018-04-28T17:09:52.441Z,24.22
2018-04-28T17:13:27.699Z,24.15
2018-04-28T17:14:25.001Z,24.13
2018-04-28T17:15:14.967Z,24.05
2018-04-28T17:16:03.999Z,24.09
2018-04-28T17:19:26.174Z,23.97
2018-04-28T17:20:14.249Z,23.95
2018-04-28T17:21:03.405Z,23.9
2018-04-28T17:21:54.793Z,23.91
2018-04-28T17:22:43.803Z,23.84
2018-04-28T17:26:08.459Z,23.7
2018-04-28T17:26:54.547Z,23.68
2018-04-28T17:27:43.217Z,23.6
2018-04-28T17:28:32.154Z,23.58
2018-04-28T17:29:21.833Z,23.58
2018-04-28T17:30:10.724Z,23.6
2018-04-28T17:30:59.638Z,23.51
2018-04-28T17:31:51.705Z,23.55
2018-04-28T17:32:39.811Z,23.51
2018-04-28T17:33:28.964Z,23.51
2018-04-28T17:34:17.464Z,23.53
2018-04-28T17:35:06.712Z,23.47
2018-04-28T17:35:55.862Z,23.38
2018-04-28T17:36:44.535Z,23.35
2018-04-28T17:37:34.214Z,23.33
2018-04-28T17:38:24.229Z,23.32
2018-04-28T17:39:12.712Z,23.31
2018-04-28T17:40:01.523Z,23.2
2018-04-28T17:40:50.191Z,23.25
2018-04-28T17:41:39.063Z,23.16
2018-04-28T17:44:12.973Z,23.1
2018-04-28T17:45:01.995Z,23.02
2018-04-28T17:45:44.452Z,23.02
2018-04-28T17:46:25.193Z,22.97
2018-04-28T17:47:07.786Z,22.92
2018-04-28T17:47:48.333Z,22.88
2018-04-28T17:51:12.391Z,22.65
2018-04-28T17:52:17.970Z,22.67
2018-04-28T17:53:17.425Z,22.72
